createdAt,value
2024-05-09T00:00:47.068Z,9.30
2024-05-09T00:03:15.186Z,9.10
2024-05-09T00:05:44.450Z,9.10
2024-05-09T00:08:12.926Z,8.90
2024-05-09T00:10:41.491Z,9.10
2024-05-09T00:13:11.294Z,9.30
2024-05-09T00:15:39.293Z,9.30
2024-05-09T00:18:08.056Z,9.50
2024-05-09T00:20:39.677Z,9.40
2024-05-09T00:23:13.879Z,9.30
2024-05-09T00:25:43.653Z,9.10
2024-05-09T00:28:12.730Z,8.90
2024-05-09T00:30:40.988Z,8.80
2024-05-09T00:33:10.492Z,8.70
2024-05-09T00:35:39.927Z,8.70
2024-05-09T00:38:08.209Z,8.70
2024-05-09T00:40:40.441Z,8.90
2024-05-09T00:43:12.512Z,8.90
2024-05-09T00:45:41.459Z,8.90
2024-05-09T00:48:13.498Z,8.80
2024-05-09T00:50:45.064Z,8.80
2024-05-09T00:53:15.551Z,8.60
2024-05-09T00:55:44.683Z,8.40
2024-05-09T00:58:16.581Z,8.40
2024-05-09T01:00:44.852Z,8.20
2024-05-09T01:03:14.235Z,8.10
2024-05-09T01:05:43.841Z,7.90
2024-05-09T01:08:12.819Z,8.00
2024-05-09T01:10:43.718Z,8.10
2024-05-09T01:13:13.181Z,8.10
2024-05-09T01:15:41.223Z,8.00
2024-05-09T01:18:11.941Z,7.90
2024-05-09T01:20:43.859Z,7.70
2024-05-09T01:23:15.118Z,7.60
2024-05-09T01:25:45.972Z,7.50
2024-05-09T01:28:15.228Z,7.40
2024-05-09T01:30:43.459Z,7.20
2024-05-09T01:33:12.517Z,7.10
2024-05-09T01:35:42.507Z,7.10
2024-05-09T01:38:14.290Z,7.00
2024-05-09T01:40:42.653Z,7.00
2024-05-09T01:43:11.989Z,6.90
2024-05-09T01:45:41.197Z,6.80
2024-05-09T01:48:10.744Z,6.70
2024-05-09T01:50:42.150Z,6.70
2024-05-09T01:53:12.880Z,6.70
2024-05-09T01:55:41.388Z,6.70
2024-05-09T01:58:09.817Z,6.60
2024-05-09T02:00:41.363Z,6.50
2024-05-09T02:03:15.279Z,6.50
2024-05-09T02:05:46.772Z,6.40
2024-05-09T02:08:20.777Z,6.30
2024-05-09T02:10:50.030Z,6.40
2024-05-09T02:13:18.797Z,6.40
2024-05-09T02:15:46.790Z,6.30
2024-05-09T02:18:14.877Z,6.20
2024-05-09T02:20:43.443Z,6.10
2024-05-09T02:23:12.280Z,6.00
2024-05-09T02:25:41.981Z,6.00
2024-05-09T02:28:10.012Z,6.00
2024-05-09T02:30:40.927Z,6.00
2024-05-09T02:33:12.528Z,6.00
2024-05-09T02:35:43.444Z,5.80
2024-05-09T02:38:12.441Z,5.80
2024-05-09T06:15:40.875Z,13.90
